sensor_id;sensor_type;location;lat;lon;timestamp;P1;durP1;ratioP1;P2;durP2;ratioP2
46284;SDS011;32018;59.182;18.148;2023-04-15T00:00:09;3.22;;;1.60;;
46284;SDS011;32018;59.182;18.148;2023-04-15T00:02:34;1.65;;;1.55;;
46284;SDS011;32018;59.182;18.148;2023-04-15T00:05:01;2.15;;;1.40;;
46284;SDS011;32018;59.182;18.148;2023-04-15T00:07:26;3.40;;;1.77;;
46284;SDS011;32018;59.182;18.148;2023-04-15T00:09:51;3.90;;;2.47;;
46284;SDS011;32018;59.182;18.148;2023-04-15T00:12:19;3.97;;;1.98;;
46284;SDS011;32018;59.182;18.148;2023-04-15T00:14:45;5.53;;;1.60;;
46284;SDS011;32018;59.182;18.148;2023-04-15T00:17:10;2.17;;;1.98;;
46284;SDS011;32018;59.182;18.148;2023-04-15T00:19:36;3.00;;;2.03;;
46284;SDS011;32018;59.182;18.148;2023-04-15T00:22:02;1.33;;;1.20;;
46284;SDS011;32018;59.182;18.148;2023-04-15T00:24:27;1.30;;;1.20;;
46284;SDS011;32018;59.182;18.148;2023-04-15T00:26:53;2.83;;;1.60;;
46284;SDS011;32018;59.182;18.148;2023-04-15T00:29:18;2.83;;;1.63;;
46284;SDS011;32018;59.182;18.148;2023-04-15T00:31:43;2.80;;;1.70;;
46284;SDS011;32018;59.182;18.148;2023-04-15T00:34:09;2.83;;;1.75;;
46284;SDS011;32018;59.182;18.148;2023-04-15T00:36:34;2.55;;;1.60;;
46284;SDS011;32018;59.182;18.148;2023-04-15T00:39:00;2.38;;;1.67;;
46284;SDS011;32018;59.182;18.148;2023-04-15T00:41:27;2.40;;;1.60;;
46284;SDS011;32018;59.182;18.148;2023-04-15T00:43:52;1.88;;;1.45;;
46284;SDS011;32018;59.182;18.148;2023-04-15T00:46:18;1.65;;;1.30;;
46284;SDS011;32018;59.182;18.148;2023-04-15T00:48:45;1.92;;;1.42;;
46284;SDS011;32018;59.182;18.148;2023-04-15T00:51:10;1.50;;;1.40;;
46284;SDS011;32018;59.182;18.148;2023-04-15T00:53:36;4.05;;;1.83;;
46284;SDS011;32018;59.182;18.148;2023-04-15T00:56:01;2.78;;;1.40;;
46284;SDS011;32018;59.182;18.148;2023-04-15T00:58:26;1.30;;;1.20;;
46284;SDS011;32018;59.182;18.148;2023-04-15T01:00:52;4.35;;;1.88;;
46284;SDS011;32018;59.182;18.148;2023-04-15T01:03:18;2.75;;;1.55;;
46284;SDS011;32018;59.182;18.148;2023-04-15T01:05:43;2.40;;;1.83;;
46284;SDS011;32018;59.182;18.148;2023-04-15T01:08:09;1.75;;;1.15;;
46284;SDS011;32018;59.182;18.148;2023-04-15T01:10:35;1.88;;;1.40;;
46284;SDS011;32018;59.182;18.148;2023-04-15T01:13:01;2.42;;;1.70;;
46284;SDS011;32018;59.182;18.148;2023-04-15T01:15:26;1.92;;;1.52;;
46284;SDS011;32018;59.182;18.148;2023-04-15T01:17:52;3.38;;;1.90;;
46284;SDS011;32018;59.182;18.148;2023-04-15T01:20:17;1.63;;;1.25;;
46284;SDS011;32018;59.182;18.148;2023-04-15T01:22:42;2.65;;;2.00;;
46284;SDS011;32018;59.182;18.148;2023-04-15T01:27:33;2.25;;;1.45;;
46284;SDS011;32018;59.182;18.148;2023-04-15T01:29:59;2.65;;;1.63;;
46284;SDS011;32018;59.182;18.148;2023-04-15T01:32:25;3.22;;;2.00;;
46284;SDS011;32018;59.182;18.148;2023-04-15T01:34:51;1.70;;;1.48;;
46284;SDS011;32018;59.182;18.148;2023-04-15T01:37:16;1.83;;;1.40;;
46284;SDS011;32018;59.182;18.148;2023-04-15T01:39:41;1.27;;;1.17;;
46284;SDS011;32018;59.182;18.148;2023-04-15T01:42:06;1.75;;;1.23;;
46284;SDS011;32018;59.182;18.148;2023-04-15T01:44:32;2.25;;;1.50;;
46284;SDS011;32018;59.182;18.148;2023-04-15T01:46:57;1.30;;;1.10;;
46284;SDS011;32018;59.182;18.148;2023-04-15T01:49:23;1.35;;;1.13;;
46284;SDS011;32018;59.182;18.148;2023-04-15T01:51:48;1.25;;;1.15;;
46284;SDS011;32018;59.182;18.148;2023-04-15T01:54:13;3.83;;;1.80;;
46284;SDS011;32018;59.182;18.148;2023-04-15T01:56:38;2.08;;;1.80;;
46284;SDS011;32018;59.182;18.148;2023-04-15T01:59:03;1.52;;;1.20;;
46284;SDS011;32018;59.182;18.148;2023-04-15T02:01:29;1.88;;;1.17;;
46284;SDS011;32018;59.182;18.148;2023-04-15T02:03:54;2.53;;;1.60;;
46284;SDS011;32018;59.182;18.148;2023-04-15T02:06:19;1.67;;;1.47;;
46284;SDS011;32018;59.182;18.148;2023-04-15T02:08:45;4.95;;;2.88;;
46284;SDS011;32018;59.182;18.148;2023-04-15T02:11:10;1.83;;;1.48;;
46284;SDS011;32018;59.182;18.148;2023-04-15T02:13:35;1.50;;;1.17;;
46284;SDS011;32018;59.182;18.148;2023-04-15T02:16:01;1.60;;;1.20;;
46284;SDS011;32018;59.182;18.148;2023-04-15T02:18:26;2.60;;;1.67;;
46284;SDS011;32018;59.182;18.148;2023-04-15T02:20:52;1.95;;;1.42;;
46284;SDS011;32018;59.182;18.148;2023-04-15T02:23:17;2.03;;;1.38;;
46284;SDS011;32018;59.182;18.148;2023-04-15T02:25:42;1.80;;;1.30;;
46284;SDS011;32018;59.182;18.148;2023-04-15T02:28:07;1.40;;;1.30;;
46284;SDS011;32018;59.182;18.148;2023-04-15T02:30:33;2.15;;;1.20;;
46284;SDS011;32018;59.182;18.148;2023-04-15T02:32:59;1.75;;;1.25;;
46284;SDS011;32018;59.182;18.148;2023-04-15T02:35:24;3.55;;;2.08;;
46284;SDS011;32018;59.182;18.148;2023-04-15T02:37:50;2.25;;;1.60;;
46284;SDS011;32018;59.182;18.148;2023-04-15T02:40:15;1.23;;;1.23;;
46284;SDS011;32018;59.182;18.148;2023-04-15T02:42:41;1.55;;;1.20;;
46284;SDS011;32018;59.182;18.148;2023-04-15T02:45:08;2.55;;;1.55;;
46284;SDS011;32018;59.182;18.148;2023-04-15T02:47:34;1.23;;;1.13;;
46284;SDS011;32018;59.182;18.148;2023-04-15T02:50:00;2.08;;;1.33;;
46284;SDS011;32018;59.182;18.148;2023-04-15T02:52:26;2.15;;;1.35;;
46284;SDS011;32018;59.182;18.148;2023-04-15T02:54:51;3.83;;;1.60;;
46284;SDS011;32018;59.182;18.148;2023-04-15T02:57:17;1.92;;;1.60;;
46284;SDS011;32018;59.182;18.148;2023-04-15T02:59:43;1.40;;;1.30;;
46284;SDS011;32018;59.182;18.148;2023-04-15T03:02:08;1.67;;;1.40;;
46284;SDS011;32018;59.182;18.148;2023-04-15T03:04:33;3.55;;;2.13;;
46284;SDS011;32018;59.182;18.148;2023-04-15T03:06:59;1.45;;;1.10;;
46284;SDS011;32018;59.182;18.148;2023-04-15T03:09:25;2.78;;;1.67;;
46284;SDS011;32018;59.182;18.148;2023-04-15T03:11:50;2.20;;;1.90;;
46284;SDS011;32018;59.182;18.148;2023-04-15T03:14:17;1.77;;;1.65;;
46284;SDS011;32018;59.182;18.148;2023-04-15T03:16:42;5.95;;;1.83;;
46284;SDS011;32018;59.182;18.148;2023-04-15T03:19:07;2.50;;;1.50;;
46284;SDS011;32018;59.182;18.148;2023-04-15T03:21:33;1.88;;;1.40;;
46284;SDS011;32018;59.182;18.148;2023-04-15T03:23:58;2.80;;;1.37;;
46284;SDS011;32018;59.182;18.148;2023-04-15T03:26:25;1.70;;;1.30;;
46284;SDS011;32018;59.182;18.148;2023-04-15T03:28:51;4.07;;;1.80;;
46284;SDS011;32018;59.182;18.148;2023-04-15T03:31:16;3.72;;;1.75;;
46284;SDS011;32018;59.182;18.148;2023-04-15T03:33:41;1.35;;;1.25;;
46284;SDS011;32018;59.182;18.148;2023-04-15T03:36:06;2.33;;;1.48;;
46284;SDS011;32018;59.182;18.148;2023-04-15T03:38:31;1.33;;;1.20;;
46284;SDS011;32018;59.182;18.148;2023-04-15T03:40:57;3.70;;;1.55;;
46284;SDS011;32018;59.182;18.148;2023-04-15T03:43:22;2.70;;;1.70;;
46284;SDS011;32018;59.182;18.148;2023-04-15T03:45:47;1.70;;;1.60;;
46284;SDS011;32018;59.182;18.148;2023-04-15T03:48:12;1.83;;;1.73;;
46284;SDS011;32018;59.182;18.148;2023-04-15T03:50:37;1.70;;;1.45;;
46284;SDS011;32018;59.182;18.148;2023-04-15T03:53:03;1.75;;;1.27;;
46284;SDS011;32018;59.182;18.148;2023-04-15T03:55:28;6.45;;;1.52;;
46284;SDS011;32018;59.182;18.148;2023-04-15T03:57:53;3.55;;;1.60;;
46284;SDS011;32018;59.182;18.148;2023-04-15T04:00:18;1.35;;;1.25;;
46284;SDS011;32018;59.182;18.148;2023-04-15T04:02:44;1.40;;;1.13;;
46284;SDS011;32018;59.182;18.148;2023-04-15T04:05:09;1.80;;;1.52;;
46284;SDS011;32018;59.182;18.148;2023-04-15T04:07:35;2.92;;;1.60;;
46284;SDS011;32018;59.182;18.148;2023-04-15T04:10:01;4.55;;;1.23;;
46284;SDS011;32018;59.182;18.148;2023-04-15T04:12:28;1.95;;;1.52;;
46284;SDS011;32018;59.182;18.148;2023-04-15T04:14:53;2.40;;;1.50;;
46284;SDS011;32018;59.182;18.148;2023-04-15T04:17:18;1.00;;;1.00;;
46284;SDS011;32018;59.182;18.148;2023-04-15T04:19:43;1.95;;;1.40;;
46284;SDS011;32018;59.182;18.148;2023-04-15T04:22:09;2.45;;;1.80;;
46284;SDS011;32018;59.182;18.148;2023-04-15T04:24:34;1.63;;;1.40;;
46284;SDS011;32018;59.182;18.148;2023-04-15T04:26:59;1.60;;;1.50;;
46284;SDS011;32018;59.182;18.148;2023-04-15T04:29:25;3.08;;;2.20;;
46284;SDS011;32018;59.182;18.148;2023-04-15T04:31:50;3.55;;;2.05;;
46284;SDS011;32018;59.182;18.148;2023-04-15T04:34:16;2.35;;;2.03;;
46284;SDS011;32018;59.182;18.148;2023-04-15T04:36:41;1.92;;;1.40;;
46284;SDS011;32018;59.182;18.148;2023-04-15T04:39:06;3.22;;;1.80;;
46284;SDS011;32018;59.182;18.148;2023-04-15T04:41:32;1.80;;;1.60;;
46284;SDS011;32018;59.182;18.148;2023-04-15T04:43:57;2.88;;;1.60;;
46284;SDS011;32018;59.182;18.148;2023-04-15T04:46:22;1.50;;;1.25;;
46284;SDS011;32018;59.182;18.148;2023-04-15T04:48:47;1.50;;;1.33;;
46284;SDS011;32018;59.182;18.148;2023-04-15T04:51:13;1.40;;;1.27;;
46284;SDS011;32018;59.182;18.148;2023-04-15T04:53:38;2.60;;;1.90;;
46284;SDS011;32018;59.182;18.148;2023-04-15T04:56:03;5.67;;;1.60;;
46284;SDS011;32018;59.182;18.148;2023-04-15T04:58:29;4.38;;;1.85;;
46284;SDS011;32018;59.182;18.148;2023-04-15T05:00:54;2.95;;;1.70;;
46284;SDS011;32018;59.182;18.148;2023-04-15T05:03:20;3.63;;;1.90;;
46284;SDS011;32018;59.182;18.148;2023-04-15T05:05:45;3.13;;;2.20;;
46284;SDS011;32018;59.182;18.148;2023-04-15T05:08:13;1.83;;;1.20;;
46284;SDS011;32018;59.182;18.148;2023-04-15T05:10:38;3.42;;;1.98;;
46284;SDS011;32018;59.182;18.148;2023-04-15T05:13:03;3.77;;;1.80;;
46284;SDS011;32018;59.182;18.148;2023-04-15T05:15:28;1.60;;;1.42;;
46284;SDS011;32018;59.182;18.148;2023-04-15T05:17:53;3.60;;;1.90;;
46284;SDS011;32018;59.182;18.148;2023-04-15T05:20:19;1.50;;;1.38;;
46284;SDS011;32018;59.182;18.148;2023-04-15T05:22:44;3.40;;;2.17;;
46284;SDS011;32018;59.182;18.148;2023-04-15T05:25:10;2.47;;;1.52;;
46284;SDS011;32018;59.182;18.148;2023-04-15T05:27:35;1.38;;;1.20;;
46284;SDS011;32018;59.182;18.148;2023-04-15T05:30:00;2.22;;;1.30;;
46284;SDS011;32018;59.182;18.148;2023-04-15T05:32:25;1.73;;;1.30;;
46284;SDS011;32018;59.182;18.148;2023-04-15T05:34:51;2.33;;;2.00;;
46284;SDS011;32018;59.182;18.148;2023-04-15T05:37:16;3.15;;;2.22;;
46284;SDS011;32018;59.182;18.148;2023-04-15T05:39:41;2.72;;;1.80;;
46284;SDS011;32018;59.182;18.148;2023-04-15T05:42:07;2.50;;;2.10;;
46284;SDS011;32018;59.182;18.148;2023-04-15T05:44:32;4.18;;;2.60;;
46284;SDS011;32018;59.182;18.148;2023-04-15T05:46:57;2.22;;;1.75;;
46284;SDS011;32018;59.182;18.148;2023-04-15T05:49:22;2.38;;;2.17;;
46284;SDS011;32018;59.182;18.148;2023-04-15T05:51:47;1.65;;;1.45;;
46284;SDS011;32018;59.182;18.148;2023-04-15T05:54:13;2.38;;;1.92;;
46284;SDS011;32018;59.182;18.148;2023-04-15T05:56:38;3.42;;;2.13;;
46284;SDS011;32018;59.182;18.148;2023-04-15T05:59:03;1.77;;;1.50;;
46284;SDS011;32018;59.182;18.148;2023-04-15T06:01:29;1.90;;;1.73;;
46284;SDS011;32018;59.182;18.148;2023-04-15T06:03:54;1.83;;;1.70;;
46284;SDS011;32018;59.182;18.148;2023-04-15T06:06:19;1.83;;;1.40;;
46284;SDS011;32018;59.182;18.148;2023-04-15T06:08:45;1.77;;;1.65;;
46284;SDS011;32018;59.182;18.148;2023-04-15T06:11:10;3.00;;;2.63;;
46284;SDS011;32018;59.182;18.148;2023-04-15T06:13:36;4.45;;;2.13;;
46284;SDS011;32018;59.182;18.148;2023-04-15T06:16:01;2.50;;;1.92;;
46284;SDS011;32018;59.182;18.148;2023-04-15T06:18:26;2.35;;;1.70;;
46284;SDS011;32018;59.182;18.148;2023-04-15T06:20:51;2.50;;;1.67;;
46284;SDS011;32018;59.182;18.148;2023-04-15T06:23:17;5.10;;;2.75;;
46284;SDS011;32018;59.182;18.148;2023-04-15T06:25:42;4.22;;;1.95;;
46284;SDS011;32018;59.182;18.148;2023-04-15T06:28:07;2.60;;;1.60;;
46284;SDS011;32018;59.182;18.148;2023-04-15T06:30:33;2.10;;;1.90;;
46284;SDS011;32018;59.182;18.148;2023-04-15T06:32:59;1.95;;;1.50;;
46284;SDS011;32018;59.182;18.148;2023-04-15T06:35:24;2.80;;;1.77;;
46284;SDS011;32018;59.182;18.148;2023-04-15T06:37:49;1.92;;;1.52;;
46284;SDS011;32018;59.182;18.148;2023-04-15T06:40:15;1.85;;;1.75;;
46284;SDS011;32018;59.182;18.148;2023-04-15T06:42:41;4.75;;;2.33;;
46284;SDS011;32018;59.182;18.148;2023-04-15T06:45:06;2.10;;;1.50;;
46284;SDS011;32018;59.182;18.148;2023-04-15T06:47:32;2.30;;;2.00;;
46284;SDS011;32018;59.182;18.148;2023-04-15T06:49:57;2.03;;;1.70;;
46284;SDS011;32018;59.182;18.148;2023-04-15T06:52:23;5.93;;;1.70;;
46284;SDS011;32018;59.182;18.148;2023-04-15T06:54:48;1.95;;;1.48;;
46284;SDS011;32018;59.182;18.148;2023-04-15T06:57:13;1.75;;;1.65;;
46284;SDS011;32018;59.182;18.148;2023-04-15T06:59:38;3.22;;;1.45;;
46284;SDS011;32018;59.182;18.148;2023-04-15T07:02:03;2.13;;;1.63;;
46284;SDS011;32018;59.182;18.148;2023-04-15T07:04:29;2.88;;;1.30;;
46284;SDS011;32018;59.182;18.148;2023-04-15T07:06:54;2.10;;;1.90;;
46284;SDS011;32018;59.182;18.148;2023-04-15T07:09:20;4.13;;;1.58;;
46284;SDS011;32018;59.182;18.148;2023-04-15T07:11:45;1.73;;;1.63;;
46284;SDS011;32018;59.182;18.148;2023-04-15T07:14:10;2.37;;;1.67;;
46284;SDS011;32018;59.182;18.148;2023-04-15T07:16:36;1.88;;;1.67;;
46284;SDS011;32018;59.182;18.148;2023-04-15T07:19:01;1.65;;;1.45;;
46284;SDS011;32018;59.182;18.148;2023-04-15T07:21:26;1.70;;;1.50;;
46284;SDS011;32018;59.182;18.148;2023-04-15T07:23:51;4.60;;;1.88;;
46284;SDS011;32018;59.182;18.148;2023-04-15T07:26:17;8.25;;;1.90;;
46284;SDS011;32018;59.182;18.148;2023-04-15T07:28:42;3.30;;;2.17;;
46284;SDS011;32018;59.182;18.148;2023-04-15T07:31:07;3.25;;;1.70;;
46284;SDS011;32018;59.182;18.148;2023-04-15T07:33:32;2.35;;;1.67;;
46284;SDS011;32018;59.182;18.148;2023-04-15T07:35:58;3.58;;;1.63;;
46284;SDS011;32018;59.182;18.148;2023-04-15T07:38:23;2.15;;;1.60;;
46284;SDS011;32018;59.182;18.148;2023-04-15T07:40:48;1.30;;;1.20;;
46284;SDS011;32018;59.182;18.148;2023-04-15T07:43:13;2.70;;;1.77;;
46284;SDS011;32018;59.182;18.148;2023-04-15T07:45:39;1.60;;;1.50;;
46284;SDS011;32018;59.182;18.148;2023-04-15T07:48:04;3.47;;;2.13;;
46284;SDS011;32018;59.182;18.148;2023-04-15T07:50:30;1.50;;;1.40;;
46284;SDS011;32018;59.182;18.148;2023-04-15T07:52:55;1.67;;;1.50;;
46284;SDS011;32018;59.182;18.148;2023-04-15T07:55:21;1.88;;;1.52;;
46284;SDS011;32018;59.182;18.148;2023-04-15T07:57:47;4.93;;;2.00;;
46284;SDS011;32018;59.182;18.148;2023-04-15T08:00:13;2.60;;;1.70;;
46284;SDS011;32018;59.182;18.148;2023-04-15T08:02:39;2.63;;;1.90;;
46284;SDS011;32018;59.182;18.148;2023-04-15T08:05:04;3.53;;;2.08;;
46284;SDS011;32018;59.182;18.148;2023-04-15T08:07:30;4.60;;;1.95;;
46284;SDS011;32018;59.182;18.148;2023-04-15T08:09:55;2.50;;;1.58;;
46284;SDS011;32018;59.182;18.148;2023-04-15T08:12:20;1.83;;;1.70;;
46284;SDS011;32018;59.182;18.148;2023-04-15T08:14:46;3.90;;;1.88;;
46284;SDS011;32018;59.182;18.148;2023-04-15T08:17:11;2.03;;;1.73;;
46284;SDS011;32018;59.182;18.148;2023-04-15T08:19:36;2.70;;;2.10;;
46284;SDS011;32018;59.182;18.148;2023-04-15T08:22:01;3.75;;;1.80;;
46284;SDS011;32018;59.182;18.148;2023-04-15T08:24:28;1.17;;;1.10;;
46284;SDS011;32018;59.182;18.148;2023-04-15T08:26:54;2.83;;;2.00;;
46284;SDS011;32018;59.182;18.148;2023-04-15T08:29:20;2.63;;;1.70;;
46284;SDS011;32018;59.182;18.148;2023-04-15T08:31:45;2.20;;;1.67;;
46284;SDS011;32018;59.182;18.148;2023-04-15T08:34:11;2.15;;;1.95;;
46284;SDS011;32018;59.182;18.148;2023-04-15T08:36:37;2.88;;;2.35;;
46284;SDS011;32018;59.182;18.148;2023-04-15T08:39:02;3.30;;;3.00;;
46284;SDS011;32018;59.182;18.148;2023-04-15T08:41:29;5.85;;;5.25;;
46284;SDS011;32018;59.182;18.148;2023-04-15T08:44:02;7.82;;;5.38;;
46284;SDS011;32018;59.182;18.148;2023-04-15T08:46:28;4.53;;;4.13;;
46284;SDS011;32018;59.182;18.148;2023-04-15T08:48:55;4.95;;;4.45;;
46284;SDS011;32018;59.182;18.148;2023-04-15T08:51:20;4.13;;;3.78;;
46284;SDS011;32018;59.182;18.148;2023-04-15T08:53:46;4.18;;;3.78;;
46284;SDS011;32018;59.182;18.148;2023-04-15T08:56:11;3.15;;;2.78;;
46284;SDS011;32018;59.182;18.148;2023-04-15T08:58:38;2.70;;;2.50;;
46284;SDS011;32018;59.182;18.148;2023-04-15T09:01:03;2.83;;;2.35;;
46284;SDS011;32018;59.182;18.148;2023-04-15T09:03:29;2.63;;;2.35;;
46284;SDS011;32018;59.182;18.148;2023-04-15T09:05:54;3.50;;;2.20;;
46284;SDS011;32018;59.182;18.148;2023-04-15T09:08:20;2.53;;;2.25;;
46284;SDS011;32018;59.182;18.148;2023-04-15T09:10:46;1.95;;;1.63;;
46284;SDS011;32018;59.182;18.148;2023-04-15T09:13:11;2.28;;;1.40;;
46284;SDS011;32018;59.182;18.148;2023-04-15T09:15:37;4.65;;;2.30;;
46284;SDS011;32018;59.182;18.148;2023-04-15T09:18:02;2.47;;;1.65;;
46284;SDS011;32018;59.182;18.148;2023-04-15T09:20:28;1.80;;;1.67;;
46284;SDS011;32018;59.182;18.148;2023-04-15T09:22:53;2.95;;;2.50;;
46284;SDS011;32018;59.182;18.148;2023-04-15T09:27:48;3.75;;;2.40;;
46284;SDS011;32018;59.182;18.148;2023-04-15T09:30:14;2.72;;;2.50;;
46284;SDS011;32018;59.182;18.148;2023-04-15T09:32:50;3.05;;;2.67;;
46284;SDS011;32018;59.182;18.148;2023-04-15T09:35:15;2.20;;;2.00;;
46284;SDS011;32018;59.182;18.148;2023-04-15T09:37:41;2.95;;;2.65;;
46284;SDS011;32018;59.182;18.148;2023-04-15T09:40:06;1.98;;;1.70;;
46284;SDS011;32018;59.182;18.148;2023-04-15T09:42:34;4.22;;;2.55;;
46284;SDS011;32018;59.182;18.148;2023-04-15T09:45:09;5.28;;;2.97;;
46284;SDS011;32018;59.182;18.148;2023-04-15T09:47:35;8.95;;;3.70;;
46284;SDS011;32018;59.182;18.148;2023-04-15T09:50:01;2.22;;;1.95;;
46284;SDS011;32018;59.182;18.148;2023-04-15T09:52:26;3.63;;;3.33;;
46284;SDS011;32018;59.182;18.148;2023-04-15T09:54:53;3.30;;;3.00;;
46284;SDS011;32018;59.182;18.148;2023-04-15T09:57:21;7.75;;;3.40;;
46284;SDS011;32018;59.182;18.148;2023-04-15T09:59:47;3.30;;;1.92;;
46284;SDS011;32018;59.182;18.148;2023-04-15T10:02:13;3.75;;;3.42;;
46284;SDS011;32018;59.182;18.148;2023-04-15T10:04:41;3.05;;;2.15;;
46284;SDS011;32018;59.182;18.148;2023-04-15T10:07:10;4.55;;;3.35;;
46284;SDS011;32018;59.182;18.148;2023-04-15T10:09:36;3.70;;;2.63;;
46284;SDS011;32018;59.182;18.148;2023-04-15T10:12:02;1.98;;;1.85;;
46284;SDS011;32018;59.182;18.148;2023-04-15T10:14:30;3.00;;;1.60;;
46284;SDS011;32018;59.182;18.148;2023-04-15T10:16:56;4.60;;;3.15;;
46284;SDS011;32018;59.182;18.148;2023-04-15T10:19:24;3.22;;;1.70;;
46284;SDS011;32018;59.182;18.148;2023-04-15T10:21:51;3.03;;;2.72;;
46284;SDS011;32018;59.182;18.148;2023-04-15T10:24:17;2.72;;;2.53;;
46284;SDS011;32018;59.182;18.148;2023-04-15T10:26:42;3.17;;;2.97;;
46284;SDS011;32018;59.182;18.148;2023-04-15T10:29:08;2.50;;;1.77;;
46284;SDS011;32018;59.182;18.148;2023-04-15T10:31:34;3.85;;;3.53;;
46284;SDS011;32018;59.182;18.148;2023-04-15T10:34:02;4.75;;;3.70;;
46284;SDS011;32018;59.182;18.148;2023-04-15T10:36:30;4.30;;;3.20;;
46284;SDS011;32018;59.182;18.148;2023-04-15T10:38:55;3.45;;;3.13;;
46284;SDS011;32018;59.182;18.148;2023-04-15T10:41:21;3.47;;;3.08;;
46284;SDS011;32018;59.182;18.148;2023-04-15T10:44:03;7.28;;;3.05;;
46284;SDS011;32018;59.182;18.148;2023-04-15T10:46:35;4.50;;;2.83;;
46284;SDS011;32018;59.182;18.148;2023-04-15T10:49:05;3.60;;;2.70;;
46284;SDS011;32018;59.182;18.148;2023-04-15T10:51:31;3.70;;;2.30;;
46284;SDS011;32018;59.182;18.148;2023-04-15T10:53:59;2.75;;;2.55;;
46284;SDS011;32018;59.182;18.148;2023-04-15T10:56:24;3.70;;;2.75;;
46284;SDS011;32018;59.182;18.148;2023-04-15T10:58:52;4.78;;;4.43;;
46284;SDS011;32018;59.182;18.148;2023-04-15T11:01:18;3.97;;;3.63;;
46284;SDS011;32018;59.182;18.148;2023-04-15T11:03:43;3.40;;;2.40;;
46284;SDS011;32018;59.182;18.148;2023-04-15T11:06:09;7.88;;;3.85;;
46284;SDS011;32018;59.182;18.148;2023-04-15T11:11:19;2.90;;;2.70;;
46284;SDS011;32018;59.182;18.148;2023-04-15T11:13:48;5.40;;;2.00;;
46284;SDS011;32018;59.182;18.148;2023-04-15T11:16:13;2.67;;;2.15;;
46284;SDS011;32018;59.182;18.148;2023-04-15T11:18:39;3.05;;;2.35;;
46284;SDS011;32018;59.182;18.148;2023-04-15T11:21:05;2.85;;;2.58;;
46284;SDS011;32018;59.182;18.148;2023-04-15T11:23:34;3.00;;;2.58;;
46284;SDS011;32018;59.182;18.148;2023-04-15T11:26:00;3.65;;;3.35;;
46284;SDS011;32018;59.182;18.148;2023-04-15T11:28:26;3.70;;;2.63;;
46284;SDS011;32018;59.182;18.148;2023-04-15T11:30:52;1.52;;;1.42;;
46284;SDS011;32018;59.182;18.148;2023-04-15T11:33:19;4.20;;;2.33;;
46284;SDS011;32018;59.182;18.148;2023-04-15T11:35:45;2.35;;;2.15;;
46284;SDS011;32018;59.182;18.148;2023-04-15T11:38:11;4.22;;;2.67;;
46284;SDS011;32018;59.182;18.148;2023-04-15T11:40:36;3.53;;;2.10;;
46284;SDS011;32018;59.182;18.148;2023-04-15T11:43:06;2.67;;;2.45;;
46284;SDS011;32018;59.182;18.148;2023-04-15T11:45:31;3.03;;;2.03;;
46284;SDS011;32018;59.182;18.148;2023-04-15T11:48:06;2.15;;;2.00;;
46284;SDS011;32018;59.182;18.148;2023-04-15T11:50:32;3.35;;;3.05;;
46284;SDS011;32018;59.182;18.148;2023-04-15T11:52:58;2.60;;;2.40;;
46284;SDS011;32018;59.182;18.148;2023-04-15T11:55:24;3.78;;;2.60;;
46284;SDS011;32018;59.182;18.148;2023-04-15T11:57:52;3.70;;;3.10;;
46284;SDS011;32018;59.182;18.148;2023-04-15T12:00:29;3.70;;;2.67;;
46284;SDS011;32018;59.182;18.148;2023-04-15T12:03:10;3.05;;;2.20;;
46284;SDS011;32018;59.182;18.148;2023-04-15T12:05:35;1.85;;;1.65;;
46284;SDS011;32018;59.182;18.148;2023-04-15T12:08:01;2.60;;;2.33;;
46284;SDS011;32018;59.182;18.148;2023-04-15T12:10:26;9.23;;;3.08;;
46284;SDS011;32018;59.182;18.148;2023-04-15T12:12:52;2.40;;;1.98;;
46284;SDS011;32018;59.182;18.148;2023-04-15T12:15:20;2.33;;;2.13;;
46284;SDS011;32018;59.182;18.148;2023-04-15T12:17:46;6.28;;;2.47;;
46284;SDS011;32018;59.182;18.148;2023-04-15T12:20:11;2.40;;;2.15;;
46284;SDS011;32018;59.182;18.148;2023-04-15T12:22:36;2.33;;;2.13;;
46284;SDS011;32018;59.182;18.148;2023-04-15T12:25:01;3.20;;;2.28;;
46284;SDS011;32018;59.182;18.148;2023-04-15T12:27:27;3.67;;;1.77;;
46284;SDS011;32018;59.182;18.148;2023-04-15T12:29:54;2.45;;;2.25;;
46284;SDS011;32018;59.182;18.148;2023-04-15T12:32:27;3.42;;;2.45;;
46284;SDS011;32018;59.182;18.148;2023-04-15T12:34:53;2.30;;;1.40;;
46284;SDS011;32018;59.182;18.148;2023-04-15T12:37:22;2.20;;;2.00;;
46284;SDS011;32018;59.182;18.148;2023-04-15T12:39:47;2.88;;;1.80;;
46284;SDS011;32018;59.182;18.148;2023-04-15T12:42:14;2.08;;;1.77;;
46284;SDS011;32018;59.182;18.148;2023-04-15T12:44:39;2.67;;;2.35;;
46284;SDS011;32018;59.182;18.148;2023-04-15T12:47:05;2.15;;;1.95;;
46284;SDS011;32018;59.182;18.148;2023-04-15T12:49:31;2.85;;;2.65;;
46284;SDS011;32018;59.182;18.148;2023-04-15T12:51:57;1.50;;;1.40;;
46284;SDS011;32018;59.182;18.148;2023-04-15T12:54:23;1.75;;;1.65;;
46284;SDS011;32018;59.182;18.148;2023-04-15T12:56:49;2.35;;;2.15;;
46284;SDS011;32018;59.182;18.148;2023-04-15T12:59:15;1.42;;;1.33;;
46284;SDS011;32018;59.182;18.148;2023-04-15T13:01:41;1.85;;;1.75;;
46284;SDS011;32018;59.182;18.148;2023-04-15T13:04:07;2.97;;;2.70;;
46284;SDS011;32018;59.182;18.148;2023-04-15T13:06:32;1.83;;;1.20;;
46284;SDS011;32018;59.182;18.148;2023-04-15T13:08:58;3.90;;;2.40;;
46284;SDS011;32018;59.182;18.148;2023-04-15T13:11:23;4.32;;;2.28;;
46284;SDS011;32018;59.182;18.148;2023-04-15T13:13:49;6.40;;;2.33;;
46284;SDS011;32018;59.182;18.148;2023-04-15T13:16:16;2.58;;;2.38;;
46284;SDS011;32018;59.182;18.148;2023-04-15T13:18:41;6.47;;;2.00;;
46284;SDS011;32018;59.182;18.148;2023-04-15T13:21:06;3.70;;;2.83;;
46284;SDS011;32018;59.182;18.148;2023-04-15T13:23:32;3.15;;;2.65;;
46284;SDS011;32018;59.182;18.148;2023-04-15T13:25:57;2.08;;;1.88;;
46284;SDS011;32018;59.182;18.148;2023-04-15T13:28:22;3.93;;;2.50;;
46284;SDS011;32018;59.182;18.148;2023-04-15T13:30:47;1.75;;;1.52;;
46284;SDS011;32018;59.182;18.148;2023-04-15T13:33:13;3.28;;;1.80;;
46284;SDS011;32018;59.182;18.148;2023-04-15T13:35:38;5.13;;;2.58;;
46284;SDS011;32018;59.182;18.148;2023-04-15T13:38:04;3.83;;;2.70;;
46284;SDS011;32018;59.182;18.148;2023-04-15T13:40:29;3.67;;;2.90;;
46284;SDS011;32018;59.182;18.148;2023-04-15T13:42:55;3.55;;;2.95;;
46284;SDS011;32018;59.182;18.148;2023-04-15T13:45:20;2.58;;;2.38;;
46284;SDS011;32018;59.182;18.148;2023-04-15T13:47:45;2.80;;;2.45;;
46284;SDS011;32018;59.182;18.148;2023-04-15T13:50:10;2.03;;;1.83;;
46284;SDS011;32018;59.182;18.148;2023-04-15T13:52:36;6.15;;;2.10;;
46284;SDS011;32018;59.182;18.148;2023-04-15T13:55:01;1.90;;;1.20;;
46284;SDS011;32018;59.182;18.148;2023-04-15T13:57:27;1.38;;;1.27;;
46284;SDS011;32018;59.182;18.148;2023-04-15T13:59:52;2.20;;;1.93;;
46284;SDS011;32018;59.182;18.148;2023-04-15T14:02:19;2.83;;;2.20;;
46284;SDS011;32018;59.182;18.148;2023-04-15T14:04:45;8.05;;;2.20;;
46284;SDS011;32018;59.182;18.148;2023-04-15T14:07:10;3.50;;;2.23;;
46284;SDS011;32018;59.182;18.148;2023-04-15T14:09:35;3.20;;;2.35;;
46284;SDS011;32018;59.182;18.148;2023-04-15T14:12:00;3.70;;;2.60;;
46284;SDS011;32018;59.182;18.148;2023-04-15T14:14:26;2.47;;;1.80;;
46284;SDS011;32018;59.182;18.148;2023-04-15T14:16:51;1.85;;;1.60;;
46284;SDS011;32018;59.182;18.148;2023-04-15T14:19:16;1.63;;;1.50;;
46284;SDS011;32018;59.182;18.148;2023-04-15T14:21:42;1.85;;;1.30;;
46284;SDS011;32018;59.182;18.148;2023-04-15T14:24:07;3.30;;;1.70;;
46284;SDS011;32018;59.182;18.148;2023-04-15T14:26:33;1.42;;;1.33;;
46284;SDS011;32018;59.182;18.148;2023-04-15T14:28:58;1.70;;;1.30;;
46284;SDS011;32018;59.182;18.148;2023-04-15T14:31:23;3.03;;;2.22;;